Pagrindinis puslapis
METAR-TAF:

METAR-TAF

Oro uostai :

Madridas, Ispanija

platuma: 40-27N, ilguma: 003-33W, Aukštis: 609 m

Dabartinis oras

Ataskaita buvo paskelbta 42 minutes, ne 12:30 UTC
Vėjas 1 kt iš Pietryčių
Temperatūra 25°C
Drėgmė 34%
Slėgis 1025 hPa
Matomumas 10 km arba daugiau
nėra debesų žemiau 1500 m ir nėra kamuolinių lietaus debesų

METAR: LEMD 141230Z 13001KT CAVOK 25/08 Q1025 NOSIG

Laikas: 15:12 (13:12 UTC)

Prognozė

Ataskaita buvo paskelbta 2 valandos ir 12 minutes, ne 11:00 UTC
Prognozė galioja nuo 14 metu 12 UTC su 15 metu 18 UTC
Vėjas 4 kt nuo kintamojo kryptimis
Matomumas 10 km arba daugiau
nėra debesų žemiau 1500 m ir nėra kamuolinių lietaus debesų
Tikimybė 40% :
Laikinai
nuo 14 metu 13 UTC su 14 metu 20 UTC
Vėjas 8 kt iš Pietų/Pietvakarių
Tapsmas
nuo 15 metu 10 UTC su 15 metu 12 UTC
Vėjas 9 kt iš Šiaurės

TAF: LEMD 141100Z 1412/1518 VRB04KT CAVOK TX28/1416Z TN12/1506Z PROB40 TEMPO 1413/1420 21008KT BECMG 1510/1512 01009KT

Orai ataskaitas ir orų prognozės (METAR, TAF).

turimą stotys yra geltonos ir raudonos taškus žemėlapyje.

Perkelti pele per norėdami pamatyti stoties vardą.

Tada spustelėkite, norėdami matyti oro stebėjimo ir prognozės.

Norėdami pakeisti žemėlapį: spustelėkite ant žalios mygtukų su juodo kryžiaus žemyn,; žalią mygtuką su brūkšneliu, jei norite nutolinti; arba žalių rodyklių gretimoms žemėlapius.


METAR-TAF: